createdAt,value
2018-12-09T00:03:21.719Z,4.93
2018-12-09T00:09:16.742Z,3.3
2018-12-09T00:15:11.761Z,3
2018-12-09T00:21:06.704Z,2.84
2018-12-09T00:27:01.708Z,3.89
2018-12-09T00:32:56.754Z,4.85
2018-12-09T00:38:51.724Z,2.7
2018-12-09T00:44:46.728Z,2.4
2018-12-09T00:50:41.709Z,3.24
2018-12-09T00:56:36.715Z,5.84
2018-12-09T01:02:31.715Z,2.1
2018-12-09T01:08:26.721Z,3.26
2018-12-09T01:14:21.738Z,2.04
2018-12-09T01:20:16.749Z,2.23
2018-12-09T01:26:11.787Z,3.27
2018-12-09T01:32:06.733Z,2.07
2018-12-09T01:38:01.731Z,3.04
2018-12-09T01:43:56.761Z,3.96
2018-12-09T01:49:51.726Z,2.11
2018-12-09T01:55:46.719Z,3.5
2018-12-09T02:01:41.745Z,3.69
2018-12-09T02:07:36.728Z,2.53
2018-12-09T02:13:31.773Z,2.62
2018-12-09T02:19:26.755Z,2.68
2018-12-09T02:25:21.788Z,2.44
2018-12-09T02:31:16.791Z,3.02
2018-12-09T02:37:11.739Z,3.52
2018-12-09T02:43:06.719Z,3.98
2018-12-09T02:49:01.789Z,3.8
2018-12-09T02:54:56.809Z,4.44
2018-12-09T03:00:51.772Z,5.07
2018-12-09T03:06:46.747Z,4.67
2018-12-09T03:12:41.770Z,4.07
2018-12-09T03:18:36.776Z,4.31
2018-12-09T03:24:31.772Z,3.42
2018-12-09T03:30:26.758Z,3.7
2018-12-09T03:36:21.750Z,3.3
2018-12-09T03:42:16.755Z,3.32
2018-12-09T03:48:11.754Z,3.24
2018-12-09T03:54:06.752Z,3.59
2018-12-09T04:00:01.822Z,4.28
2018-12-09T04:05:56.768Z,4.29
2018-12-09T04:11:51.780Z,3.28
2018-12-09T04:17:46.761Z,3.9
2018-12-09T04:23:41.800Z,4.14
2018-12-09T04:29:36.805Z,3.62
2018-12-09T04:35:31.787Z,3.64
2018-12-09T04:41:26.789Z,4.3
2018-12-09T04:47:21.772Z,4.49
2018-12-09T04:53:16.821Z,4.17
2018-12-09T04:59:11.766Z,4.62
2018-12-09T05:05:06.840Z,4.32
2018-12-09T05:11:01.813Z,5.44
2018-12-09T05:16:56.804Z,4.65
2018-12-09T05:22:51.794Z,6.54
2018-12-09T05:28:46.769Z,5.83
2018-12-09T05:34:41.780Z,5.42
2018-12-09T05:40:36.789Z,4.81
2018-12-09T05:46:31.785Z,5.72
2018-12-09T05:52:26.786Z,4.88
2018-12-09T05:58:21.796Z,5.59
2018-12-09T06:04:16.804Z,5.94
2018-12-09T06:10:11.796Z,5.68
2018-12-09T06:16:06.828Z,6.48
2018-12-09T06:22:01.878Z,7.09
2018-12-09T06:27:56.838Z,6.68
2018-12-09T06:33:51.818Z,7.04
2018-12-09T06:39:46.787Z,7.03
2018-12-09T06:45:41.868Z,6.9
2018-12-09T06:51:36.806Z,7.87
2018-12-09T06:57:31.794Z,7.17
2018-12-09T07:03:26.797Z,5.15
2018-12-09T07:09:21.822Z,4.29
2018-12-09T07:15:16.790Z,7.4
2018-12-09T07:21:11.787Z,8.28
2018-12-09T07:27:06.805Z,8.22
2018-12-09T07:33:01.798Z,8.44
2018-12-09T07:38:56.830Z,9.18
2018-12-09T07:44:51.791Z,8.72
2018-12-09T07:50:46.797Z,12.73
2018-12-09T07:56:41.789Z,11.3
2018-12-09T08:02:36.803Z,14.4
2018-12-09T08:08:31.824Z,8.47
2018-12-09T08:14:26.863Z,10.71
2018-12-09T08:20:21.801Z,7.82
2018-12-09T08:26:16.798Z,6.73
2018-12-09T08:32:11.808Z,11.58
2018-12-09T08:38:06.841Z,9.72
2018-12-09T08:44:01.851Z,12.81
2018-12-09T08:49:56.816Z,6.81
2018-12-09T08:55:51.813Z,5.36
2018-12-09T09:01:46.823Z,7.51
2018-12-09T09:07:41.838Z,8.68
2018-12-09T09:13:36.811Z,8.03
2018-12-09T09:19:31.848Z,12.08
2018-12-09T09:25:26.840Z,9.37
2018-12-09T09:31:21.889Z,17.1
2018-12-09T09:37:16.818Z,14.98
2018-12-09T09:43:11.853Z,25.88
2018-12-09T09:49:06.817Z,26.16
2018-12-09T09:55:01.816Z,20.45
2018-12-09T10:00:56.844Z,21.39
2018-12-09T10:06:51.830Z,21.28
2018-12-09T10:12:46.843Z,17.22
2018-12-09T10:18:41.819Z,11.37
2018-12-09T10:24:36.841Z,15.95
2018-12-09T10:30:31.868Z,14.9
2018-12-09T10:36:26.849Z,14.43
2018-12-09T10:42:21.893Z,15.25
2018-12-09T10:48:16.838Z,15.63
2018-12-09T10:54:11.871Z,10.26
2018-12-09T11:00:06.873Z,11.37
2018-12-09T11:06:01.831Z,12.59
2018-12-09T11:11:56.816Z,7.72
2018-12-09T11:17:51.836Z,9.5
2018-12-09T11:23:46.851Z,11.92
2018-12-09T11:29:41.849Z,17.25
2018-12-09T11:35:36.858Z,16.26
2018-12-09T11:41:31.863Z,12.31
2018-12-09T11:47:26.879Z,9.41
2018-12-09T11:53:21.855Z,6.68
2018-12-09T11:59:16.875Z,9.08
2018-12-09T12:05:11.843Z,9.13
2018-12-09T12:11:06.858Z,7.43
2018-12-09T12:17:01.867Z,9.53
2018-12-09T12:22:56.855Z,8.9
2018-12-09T12:28:51.877Z,6.37
2018-12-09T12:34:46.867Z,5.93
2018-12-09T12:40:41.874Z,6.48
2018-12-09T12:46:36.885Z,4.8
2018-12-09T12:52:31.948Z,5.45
2018-12-09T12:58:26.893Z,5.37
2018-12-09T13:04:21.871Z,4.39
2018-12-09T13:10:16.871Z,4.64
2018-12-09T13:16:11.884Z,5.28
2018-12-09T13:22:06.909Z,7.87
2018-12-09T13:28:01.875Z,8.1
2018-12-09T13:33:56.883Z,9.44
2018-12-09T13:39:51.894Z,9.92
2018-12-09T13:45:46.918Z,10.62
2018-12-09T13:51:41.889Z,21.74
2018-12-09T13:57:36.886Z,12.76
2018-12-09T14:03:31.882Z,11.32
2018-12-09T14:09:26.886Z,39.21
2018-12-09T14:15:21.919Z,11.9
2018-12-09T14:21:16.899Z,16.1
2018-12-09T14:27:13.274Z,12.79
2018-12-09T14:33:06.941Z,11.81
2018-12-09T14:39:01.891Z,9.9
2018-12-09T14:44:56.925Z,7.86
2018-12-09T14:50:51.924Z,6.58
2018-12-09T14:56:46.954Z,28.36
2018-12-09T15:02:41.935Z,16.7
2018-12-09T15:08:36.914Z,11.37
2018-12-09T15:14:31.964Z,14.28
2018-12-09T15:20:26.944Z,9.52
2018-12-09T15:26:21.933Z,8.67
2018-12-09T15:32:16.930Z,12.31
2018-12-09T15:38:11.914Z,13.58
2018-12-09T15:44:06.906Z,5.77
2018-12-09T15:50:01.928Z,5.04
2018-12-09T15:55:56.915Z,7.77
2018-12-09T16:01:51.932Z,21.07
2018-12-09T16:07:46.927Z,11.16
2018-12-09T16:13:41.976Z,12.22
2018-12-09T16:19:36.975Z,7.38
2018-12-09T16:25:31.931Z,9.8
2018-12-09T16:31:26.960Z,6.43
2018-12-09T16:37:21.940Z,6.43
2018-12-09T16:43:16.954Z,6.78
2018-12-09T16:49:11.954Z,13.99
2018-12-09T16:55:07.007Z,11.71
2018-12-09T17:01:01.938Z,4.66
2018-12-09T17:06:56.931Z,5.08
2018-12-09T17:12:51.959Z,5.9
2018-12-09T17:18:46.958Z,9.85
2018-12-09T17:24:41.957Z,9.86
2018-12-09T17:30:36.964Z,28.73
2018-12-09T17:36:31.971Z,18.81
2018-12-09T17:42:26.934Z,8.67
2018-12-09T17:48:21.996Z,9.75
2018-12-09T17:54:16.979Z,10.71
2018-12-09T18:00:11.952Z,10.68
2018-12-09T18:06:06.962Z,4.17
2018-12-09T18:12:01.982Z,13.29
2018-12-09T18:17:56.985Z,8.53
2018-12-09T18:23:52.645Z,7.26
2018-12-09T18:29:46.953Z,10.3
2018-12-09T18:35:41.949Z,10.44
2018-12-09T18:41:37.024Z,8.35
2018-12-09T18:47:31.953Z,13.05
2018-12-09T18:53:26.958Z,7.66
2018-12-09T18:59:21.964Z,6.03
2018-12-09T19:05:16.966Z,5.17
2018-12-09T19:11:11.945Z,4.43
2018-12-09T19:17:06.974Z,11.43
2018-12-09T19:23:01.970Z,10.24
2018-12-09T19:28:56.975Z,3.92
2018-12-09T19:34:51.981Z,5.31
2018-12-09T19:40:46.989Z,4.38
2018-12-09T19:46:41.976Z,5.62
2018-12-09T19:52:36.979Z,13.31
2018-12-09T19:58:31.961Z,6.45
2018-12-09T20:04:26.997Z,6.19
2018-12-09T20:10:21.977Z,3.65
2018-12-09T20:16:17.000Z,4.31
2018-12-09T20:22:11.959Z,2.66
2018-12-09T20:28:06.961Z,2.74
2018-12-09T20:34:01.969Z,2.74
2018-12-09T20:39:56.960Z,2.95
2018-12-09T20:45:52.034Z,3.95
2018-12-09T20:51:47.053Z,3.1
2018-12-09T20:57:41.976Z,2.97
2018-12-09T21:03:36.969Z,9.05
2018-12-09T21:09:32.067Z,9.35
2018-12-09T21:15:26.984Z,12.04
2018-12-09T21:21:21.985Z,11.4
2018-12-09T21:27:16.979Z,12.72
2018-12-09T21:33:11.983Z,15.3
2018-12-09T21:39:06.982Z,10.2
2018-12-09T21:45:01.990Z,11.01
2018-12-09T21:50:57.000Z,4.46
2018-12-09T21:56:51.985Z,4.61
2018-12-09T22:02:46.997Z,3.68
2018-12-09T22:08:41.980Z,3.49
2018-12-09T22:14:36.989Z,2.36
2018-12-09T22:20:31.991Z,3.01
2018-12-09T22:26:26.974Z,2.71
2018-12-09T22:32:22.043Z,7.91
2018-12-09T22:38:16.997Z,12.35
2018-12-09T22:44:12.040Z,10.58
2018-12-09T22:50:07.032Z,16.02
2018-12-09T22:56:02.006Z,13.99
2018-12-09T23:01:57.021Z,16.55
2018-12-09T23:07:51.990Z,8.75
2018-12-09T23:13:47.037Z,3.57
2018-12-09T23:19:41.992Z,2.68
2018-12-09T23:25:37.004Z,15.65
2018-12-09T23:31:32.008Z,4.18
2018-12-09T23:37:26.987Z,3.08
2018-12-09T23:43:22.001Z,3.58
2018-12-09T23:49:17.064Z,3.73
2018-12-09T23:55:11.989Z,3.5
